Time;durP1;ratioP1;P1;durP2;ratioP2;P2;SDS_P1;SDS_P2;PMS_P1;PMS_P2;Temp;Humidity;BMP_temperature;BMP_pressure;BME280_temperature;BME280_humidity;BME280_pressure;Samples;Min_cycle;Max_cycle;Signal;HPM_P1;HPM_P2
2022/07/12 00:01:44;;;;;;;1.55;1.10;;;;;;;19.27;57.67;100360.13;5052830;28;20799;-78
2022/07/12 00:04:11;;;;;;;1.85;1.13;;;;;;;19.26;57.65;100361.03;5052961;28;20205;-78
2022/07/12 00:06:38;;;;;;;1.88;1.30;;;;;;;19.23;58.16;100363.69;5052745;28;20204;-79
2022/07/12 00:09:05;;;;;;;1.48;1.13;;;;;;;19.06;58.36;100352.59;5052731;28;20200;-80
2022/07/12 00:11:32;;;;;;;1.30;1.20;;;;;;;18.92;58.73;100359.81;5053224;28;20200;-79
2022/07/12 00:13:59;;;;;;;1.38;1.10;;;;;;;18.74;59.39;100346.94;5052669;28;20566;-79
2022/07/12 00:16:27;;;;;;;1.20;1.20;;;;;;;19.02;58.99;100355.28;5052482;28;20219;-80
2022/07/12 00:18:54;;;;;;;1.48;1.38;;;;;;;18.78;59.07;100340.75;5053742;28;20659;-79
2022/07/12 00:21:21;;;;;;;3.90;1.20;;;;;;;18.85;58.53;100347.66;5052983;28;20710;-79
2022/07/12 00:23:48;;;;;;;1.30;1.20;;;;;;;18.56;59.03;100298.16;5052364;28;20215;-79
2022/07/12 00:26:15;;;;;;;1.33;1.25;;;;;;;18.97;58.93;100373.75;5052894;28;20200;-79
2022/07/12 00:28:42;;;;;;;1.00;1.00;;;;;;;18.98;58.69;100353.63;5052992;28;20207;-78
2022/07/12 00:31:09;;;;;;;2.70;1.20;;;;;;;18.73;58.67;100321.53;5052884;28;20238;-79
2022/07/12 00:33:38;;;;;;;2.85;1.40;;;;;;;19.15;58.90;100365.59;5052408;28;20198;-79
2022/07/12 00:36:05;;;;;;;12.50;1.55;;;;;;;19.19;58.71;100371.69;5052411;28;20706;-78
2022/07/12 00:38:32;;;;;;;4.00;1.00;;;;;;;18.95;59.02;100367.63;5053048;28;20203;-78
2022/07/12 00:40:59;;;;;;;1.10;1.10;;;;;;;18.86;59.31;100370.41;5052459;28;20199;-79
2022/07/12 00:43:26;;;;;;;2.55;1.40;;;;;;;18.65;59.41;100333.94;5052541;28;20206;-79
2022/07/12 00:45:54;;;;;;;3.30;1.50;;;;;;;18.67;60.18;100359.28;5052428;28;20196;-78
2022/07/12 00:48:21;;;;;;;1.98;1.88;;;;;;;18.78;59.89;100380.16;5017230;28;20214;-77
2022/07/12 00:50:49;;;;;;;1.42;1.30;;;;;;;18.56;60.29;100336.66;5052977;28;20199;-79
2022/07/12 00:53:23;;;;;;;1.70;1.58;;;;;;;18.82;60.46;100371.34;5052363;28;20235;-79
2022/07/12 00:55:53;;;;;;;2.45;1.27;;;;;;;18.81;60.67;100377.47;5052517;28;20202;-77
2022/07/12 00:58:22;;;;;;;1.85;1.30;;;;;;;18.67;60.63;100363.66;5052481;28;20281;-78
2022/07/12 01:00:49;;;;;;;1.30;1.27;;;;;;;18.41;61.34;100334.25;5051574;28;20282;-79
2022/07/12 01:03:17;;;;;;;1.40;1.30;;;;;;;18.71;61.09;100375.88;5052250;28;20630;-79
2022/07/12 01:05:45;;;;;;;4.95;1.17;;;;;;;18.68;60.85;100382.03;5051900;28;20199;-78
2022/07/12 01:08:16;;;;;;;1.58;1.50;;;;;;;18.75;61.40;100375.81;5051387;28;20279;-79
2022/07/12 01:10:44;;;;;;;3.58;1.20;;;;;;;18.66;61.57;100380.31;5052176;28;20286;-79
2022/07/12 01:13:12;;;;;;;1.75;1.50;;;;;;;18.71;61.60;100375.88;5051648;28;20199;-79
2022/07/12 01:15:39;;;;;;;2.00;1.45;;;;;;;18.28;62.23;100337.00;5051554;28;20196;-78
2022/07/12 01:18:06;;;;;;;2.72;1.40;;;;;;;18.51;62.22;100373.53;5051419;28;20230;-79
2022/07/12 01:20:33;;;;;;;2.15;1.98;;;;;;;18.59;62.12;100370.75;5051738;28;20547;-78
2022/07/12 01:23:02;;;;;;;2.30;1.63;;;;;;;18.65;62.38;100371.59;5051920;28;20648;-78
2022/07/12 01:25:29;;;;;;;1.42;1.33;;;;;;;18.34;62.81;100350.03;5052251;28;20203;-79
2022/07/12 01:27:56;;;;;;;2.15;1.73;;;;;;;18.33;63.32;100357.94;5016753;28;20722;-78
2022/07/12 01:30:23;;;;;;;1.88;1.77;;;;;;;18.45;62.88;100363.03;5051584;28;20272;-79
2022/07/12 01:32:51;;;;;;;2.85;1.40;;;;;;;18.32;63.53;100354.47;5051444;28;20199;-79
2022/07/12 01:35:18;;;;;;;1.50;1.40;;;;;;;18.32;63.22;100340.47;5051629;28;20192;-78
2022/07/12 01:37:46;;;;;;;2.60;1.40;;;;;;;18.27;64.15;100358.88;5051519;28;20232;-80
2022/07/12 01:40:16;;;;;;;5.53;1.65;;;;;;;18.44;64.25;100358.69;5051595;28;20219;-78
2022/07/12 01:42:44;;;;;;;3.30;1.25;;;;;;;17.78;64.62;100278.97;5032290;28;20196;-78
2022/07/12 01:45:12;;;;;;;2.28;1.20;;;;;;;18.26;64.81;100351.03;5051135;28;20574;-79
2022/07/12 01:47:39;;;;;;;1.70;1.40;;;;;;;17.84;65.04;100310.38;5051713;28;20665;-78
2022/07/12 01:50:08;;;;;;;2.22;1.80;;;;;;;18.20;65.30;100349.34;5051593;28;20199;-80
2022/07/12 01:52:36;;;;;;;2.92;1.50;;;;;;;18.12;65.36;100334.59;5051249;28;20659;-78
2022/07/12 01:55:04;;;;;;;2.85;1.70;;;;;;;18.16;65.25;100346.75;5050814;28;20705;-79
2022/07/12 01:57:34;;;;;;;1.67;1.50;;;;;;;18.14;65.78;100349.41;5051385;28;20231;-77
2022/07/12 02:00:02;;;;;;;1.67;1.27;;;;;;;18.16;66.00;100350.25;5051205;28;20191;-80
2022/07/12 02:02:30;;;;;;;1.90;1.30;;;;;;;17.98;66.61;100355.72;5050682;28;20204;-79
2022/07/12 02:04:57;;;;;;;3.75;1.67;;;;;;;17.99;66.51;100339.09;5051407;28;20235;-79
2022/07/12 02:07:25;;;;;;;4.35;1.50;;;;;;;18.13;66.22;100345.06;5051064;28;20200;-79
2022/07/12 02:09:53;;;;;;;3.40;1.60;;;;;;;18.10;66.50;100355.59;5050953;28;20675;-80
2022/07/12 02:12:19;;;;;;;3.45;1.20;;;;;;;18.06;66.81;100351.25;5012212;28;20250;-79
2022/07/12 02:14:48;;;;;;;1.58;1.48;;;;;;;18.03;67.28;100359.16;5050805;28;20211;-79
2022/07/12 02:17:15;;;;;;;2.35;1.50;;;;;;;17.92;67.71;100350.53;5048436;28;20239;-78
2022/07/12 02:19:42;;;;;;;1.52;1.42;;;;;;;17.96;67.59;100362.75;5051310;28;20210;-79
2022/07/12 02:22:09;;;;;;;2.83;1.75;;;;;;;17.89;68.42;100361.06;5050368;28;20694;-79
2022/07/12 02:24:36;;;;;;;3.17;1.85;;;;;;;17.93;68.48;100357.53;5050807;28;20687;-79
2022/07/12 02:27:03;;;;;;;1.60;1.50;;;;;;;17.77;68.44;100340.19;5051103;28;20211;-79
2022/07/12 02:29:30;;;;;;;4.45;1.50;;;;;;;17.72;68.78;100335.00;5051031;28;20200;-79
2022/07/12 02:31:58;;;;;;;2.53;2.03;;;;;;;17.96;68.96;100360.13;5050628;28;20211;-79
2022/07/12 02:34:25;;;;;;;3.83;1.50;;;;;;;17.86;68.72;100355.84;5032632;28;20204;-79
2022/07/12 02:36:52;;;;;;;1.63;1.52;;;;;;;17.90;69.14;100370.69;5031918;28;20223;-79
2022/07/12 02:39:19;;;;;;;1.70;1.60;;;;;;;17.85;69.41;100364.59;5050691;28;20202;-79
2022/07/12 02:41:45;;;;;;;5.63;1.40;;;;;;;18.00;68.98;100369.69;5051101;28;20244;-79
2022/07/12 02:44:13;;;;;;;2.08;1.42;;;;;;;17.99;69.35;100373.19;5033153;28;20207;-79
2022/07/12 02:46:40;;;;;;;4.75;1.88;;;;;;;17.84;69.72;100374.22;5055941;28;20195;-79
2022/07/12 02:49:08;;;;;;;1.98;1.85;;;;;;;18.01;69.91;100376.69;5056886;28;20196;-80
2022/07/12 02:51:35;;;;;;;1.60;1.50;;;;;;;17.91;69.88;100376.81;5054482;28;20207;-79
2022/07/12 02:54:01;;;;;;;2.63;1.25;;;;;;;17.75;70.34;100363.84;5051757;28;20227;-79
2022/07/12 02:56:28;;;;;;;1.92;1.60;;;;;;;17.87;70.21;100378.59;5051879;28;20195;-79
2022/07/12 02:58:55;;;;;;;15.05;1.95;;;;;;;17.87;70.17;100383.84;5052261;28;20211;-78
2022/07/12 03:01:22;;;;;;;1.83;1.70;;;;;;;17.83;70.29;100383.00;5050485;28;20204;-78
2022/07/12 03:03:49;;;;;;;5.28;1.80;;;;;;;17.77;71.31;100371.66;5049906;28;20208;-78
2022/07/12 03:06:17;;;;;;;2.85;1.55;;;;;;;17.78;71.39;100373.41;5050650;28;20208;-79
2022/07/12 03:08:44;;;;;;;1.55;1.52;;;;;;;17.66;71.96;100352.53;5050223;28;20203;-80
2022/07/12 03:11:11;;;;;;;6.72;1.55;;;;;;;17.85;71.17;100382.97;5050203;28;20203;-75
2022/07/12 03:13:38;;;;;;;3.58;1.63;;;;;;;17.87;71.38;100389.09;5050045;28;20211;-74
2022/07/12 03:16:07;;;;;;;2.58;1.40;;;;;;;17.86;71.70;100399.56;5050073;28;20250;-80
2022/07/12 03:18:34;;;;;;;1.52;1.42;;;;;;;18.07;71.48;100397.63;5012321;28;20220;-80
2022/07/12 03:21:00;;;;;;;1.52;1.42;;;;;;;18.02;71.03;100394.16;5030500;28;20212;-80
2022/07/12 03:23:29;;;;;;;3.50;1.40;;;;;;;18.29;69.75;100367.63;5049314;28;20196;-80
2022/07/12 03:25:56;;;;;;;2.13;1.70;;;;;;;18.51;68.44;100393.66;5050533;28;20264;-81
2022/07/12 03:28:23;;;;;;;1.80;1.65;;;;;;;18.67;66.70;100396.06;5051223;28;20215;-80
2022/07/12 03:30:49;;;;;;;3.08;1.58;;;;;;;18.90;65.06;100368.63;5054203;28;20652;-80
2022/07/12 03:33:16;;;;;;;1.77;1.60;;;;;;;19.35;63.71;100390.69;5054035;28;20212;-80
2022/07/12 03:35:43;;;;;;;1.60;1.50;;;;;;;19.58;62.75;100396.50;5054331;28;20290;-79
2022/07/12 03:38:10;;;;;;;1.70;1.52;;;;;;;19.53;62.24;100406.22;5053762;28;20231;-80
2022/07/12 03:40:38;;;;;;;2.00;1.40;;;;;;;19.56;62.01;100406.16;5054168;28;20203;-80
2022/07/12 03:43:05;;;;;;;3.50;1.50;;;;;;;19.70;61.90;100406.81;5054053;28;20203;-79
2022/07/12 03:45:32;;;;;;;5.28;1.50;;;;;;;19.50;62.08;100398.38;5053873;28;20274;-80
2022/07/12 03:47:59;;;;;;;3.40;1.27;;;;;;;19.52;62.08;100399.22;5053730;28;20655;-80
2022/07/12 03:50:26;;;;;;;3.20;1.60;;;;;;;19.51;62.73;100398.34;5053793;28;20203;-79
2022/07/12 03:52:52;;;;;;;1.85;1.40;;;;;;;19.69;61.92;100407.72;5053498;28;20204;-78
2022/07/12 03:55:19;;;;;;;1.40;1.30;;;;;;;19.44;62.79;100393.25;5053888;28;20196;-80
2022/07/12 03:57:49;;;;;;;3.55;1.50;;;;;;;20.04;60.76;100396.56;5053677;28;20705;-79
2022/07/12 04:00:16;;;;;;;1.75;1.40;;;;;;;20.70;59.13;100402.28;5053474;28;20223;-77
2022/07/12 04:02:43;;;;;;;4.88;1.45;;;;;;;20.63;57.78;100369.94;5031645;28;20216;-78
2022/07/12 04:05:12;;;;;;;1.75;1.40;;;;;;;21.35;55.44;100407.88;5053411;28;20294;-77
2022/07/12 04:07:40;;;;;;;2.78;1.50;;;;;;;21.59;53.71;100397.59;5053061;28;20210;-80
2022/07/12 04:10:08;;;;;;;2.60;1.50;;;;;;;22.47;52.84;100397.06;5052394;28;20281;-77
2022/07/12 04:12:35;;;;;;;3.95;1.58;;;;;;;22.26;52.13;100400.31;5018166;28;20203;-75
2022/07/12 04:15:03;;;;;;;3.33;1.50;;;;;;;22.51;51.83;100417.22;5017256;28;20203;-75
2022/07/12 04:17:30;;;;;;;1.60;1.50;;;;;;;22.29;52.81;100418.72;5052951;28;20235;-74
2022/07/12 04:19:57;;;;;;;1.45;1.35;;;;;;;23.27;50.23;100441.38;5058472;28;20198;-75
2022/07/12 04:22:23;;;;;;;2.70;1.55;;;;;;;23.07;49.94;100423.50;5063503;28;20203;-75
2022/07/12 04:24:50;;;;;;;2.13;1.40;;;;;;;22.59;50.44;100433.69;5062157;28;20191;-74
2022/07/12 04:27:17;;;;;;;4.65;1.45;;;;;;;22.32;50.99;100442.41;5062358;28;20215;-75
2022/07/12 04:29:44;;;;;;;3.40;3.10;;;;;;;22.98;50.46;100444.91;5026000;28;20199;-74
2022/07/12 04:32:12;;;;;;;3.85;1.67;;;;;;;22.96;50.41;100446.75;5052780;28;20571;-75
2022/07/12 04:34:39;;;;;;;2.42;1.60;;;;;;;23.26;49.68;100455.56;5052411;28;20210;-75
2022/07/12 04:37:06;;;;;;;3.78;1.80;;;;;;;23.05;50.01;100446.47;5052269;28;20195;-75
2022/07/12 04:39:32;;;;;;;1.40;1.27;;;;;;;23.46;49.28;100463.75;5051166;28;20199;-74
2022/07/12 04:41:59;;;;;;;1.30;1.20;;;;;;;23.21;48.96;100463.63;5050806;28;20206;-74
2022/07/12 04:44:26;;;;;;;2.60;1.60;;;;;;;23.70;48.37;100458.53;5052190;28;20211;-73
2022/07/12 04:46:53;;;;;;;3.97;2.10;;;;;;;24.01;47.62;100438.94;5050725;28;20207;-73
2022/07/12 04:49:21;;;;;;;5.70;1.80;;;;;;;24.32;47.08;100458.22;5045470;28;20199;-72
2022/07/12 04:51:48;;;;;;;2.47;1.30;;;;;;;23.65;47.82;100463.09;5045791;28;20203;-74
2022/07/12 04:54:15;;;;;;;1.73;1.63;;;;;;;23.52;49.04;100459.13;5015036;28;20235;-73
2022/07/12 04:56:41;;;;;;;3.67;1.52;;;;;;;24.08;47.35;100454.59;5013387;28;20206;-73
2022/07/12 04:59:08;;;;;;;1.58;1.48;;;;;;;23.90;48.95;100463.16;5036482;28;20220;-73
2022/07/12 05:01:35;;;;;;;2.70;1.40;;;;;;;23.90;47.36;100433.19;5033684;28;20208;-73
2022/07/12 05:04:02;;;;;;;1.95;1.50;;;;;;;23.50;48.46;100468.03;5045869;28;20211;-73
2022/07/12 05:06:30;;;;;;;2.25;1.60;;;;;;;23.68;49.08;100459.50;5044922;28;20223;-74
2022/07/12 05:08:57;;;;;;;4.25;1.70;;;;;;;23.70;48.95;100462.97;5051424;28;20545;-73
2022/07/12 05:11:24;;;;;;;1.92;1.45;;;;;;;24.25;48.45;100446.13;5017065;28;20200;-76
2022/07/12 05:13:52;;;;;;;1.92;1.50;;;;;;;24.47;47.78;100462.97;5048021;28;20207;-75
2022/07/12 05:16:19;;;;;;;2.88;1.60;;;;;;;24.75;47.47;100465.50;5044293;28;20203;-74
2022/07/12 05:18:45;;;;;;;1.70;1.50;;;;;;;25.56;45.82;100468.59;5032772;28;20227;-77
2022/07/12 05:21:12;;;;;;;7.05;5.20;;;;;;;25.31;46.17;100473.13;5051780;28;20206;-75
2022/07/12 05:23:40;;;;;;;8.60;4.10;;;;;;;25.65;44.86;100474.41;5051557;28;20203;-75
2022/07/12 05:26:07;;;;;;;2.55;1.60;;;;;;;25.34;44.99;100475.66;5050854;28;20206;-76
2022/07/12 05:28:34;;;;;;;2.20;1.73;;;;;;;25.03;45.97;100466.22;5051719;28;20207;-77
2022/07/12 05:31:01;;;;;;;3.08;1.55;;;;;;;24.52;46.72;100470.75;5050288;28;20204;-77
2022/07/12 05:33:28;;;;;;;3.03;1.77;;;;;;;24.74;47.01;100473.50;5016000;28;20195;-79
2022/07/12 05:35:55;;;;;;;7.72;2.22;;;;;;;24.82;47.07;100468.78;5050904;28;20772;-75
2022/07/12 05:38:22;;;;;;;4.78;2.20;;;;;;;25.11;46.33;100456.16;5051322;28;20231;-75
2022/07/12 05:40:50;;;;;;;2.15;2.00;;;;;;;25.80;45.78;100483.53;5048202;28;20199;-77
2022/07/12 05:43:17;;;;;;;2.75;1.92;;;;;;;25.11;46.23;100466.78;5051494;28;20222;-74
2022/07/12 05:45:44;;;;;;;6.00;2.20;;;;;;;24.41;47.28;100457.88;5042866;28;20207;-78
2022/07/12 05:48:11;;;;;;;2.90;1.83;;;;;;;23.96;48.40;100459.47;5051216;28;20210;-76
2022/07/12 05:50:37;;;;;;;3.05;2.33;;;;;;;24.39;49.12;100459.75;5006854;28;20211;-78
2022/07/12 05:53:21;;;;;;;5.32;2.10;;;;;;;24.47;48.00;100483.34;5048968;28;20207;-74
2022/07/12 05:55:50;;;;;;;6.28;1.80;;;;;;;24.58;48.93;100481.13;5050713;28;20677;-75
2022/07/12 05:58:17;;;;;;;3.88;1.85;;;;;;;24.54;48.43;100471.59;5050953;28;20773;-75
2022/07/12 06:00:44;;;;;;;1.88;1.73;;;;;;;24.54;48.58;100450.38;5050998;28;20196;-74
2022/07/12 06:03:11;;;;;;;4.50;1.80;;;;;;;23.97;49.67;100483.22;5050894;28;20252;-74
2022/07/12 06:05:38;;;;;;;2.92;1.73;;;;;;;23.86;49.72;100479.22;5042868;28;20216;-73
2022/07/12 06:08:06;;;;;;;2.17;1.80;;;;;;;24.30;50.17;100481.25;5045297;28;20214;-70
2022/07/12 06:10:33;;;;;;;2.17;1.75;;;;;;;24.09;49.63;100490.78;5051273;28;20283;-73
2022/07/12 06:13:01;;;;;;;7.10;1.90;;;;;;;24.43;49.88;100487.00;5050404;28;20298;-74
2022/07/12 06:15:29;;;;;;;4.25;1.80;;;;;;;24.52;48.89;100465.47;5050774;28;20207;-74
2022/07/12 06:17:56;;;;;;;2.40;1.52;;;;;;;24.18;49.68;100497.59;5050771;28;20710;-72
2022/07/12 06:20:23;;;;;;;3.15;1.60;;;;;;;24.35;49.52;100478.44;5050805;28;20672;-72
2022/07/12 06:22:49;;;;;;;4.32;1.75;;;;;;;24.65;49.54;100493.25;5015543;28;20204;-72
2022/07/12 06:25:17;;;;;;;3.38;1.73;;;;;;;24.11;50.26;100494.22;5050724;28;20242;-72
2022/07/12 06:27:44;;;;;;;1.70;1.60;;;;;;;23.63;51.16;100490.56;5050886;28;20235;-74
2022/07/12 06:30:13;;;;;;;3.85;1.30;;;;;;;23.24;51.78;100489.97;5050741;28;20250;-74
2022/07/12 06:32:40;;;;;;;4.03;1.58;;;;;;;23.12;52.62;100469.16;5051026;28;20207;-74
2022/07/12 06:35:07;;;;;;;2.47;1.85;;;;;;;23.29;52.72;100488.09;5003125;28;20219;-77
2022/07/12 06:37:34;;;;;;;1.90;1.65;;;;;;;22.61;53.07;100421.31;5049742;28;20198;-73
2022/07/12 06:40:01;;;;;;;1.73;1.63;;;;;;;23.26;53.52;100487.31;5050801;28;20306;-74
2022/07/12 06:42:28;;;;;;;1.60;1.50;;;;;;;22.94;53.57;100475.00;5050535;28;20206;-73
2022/07/12 06:44:55;;;;;;;3.83;1.90;;;;;;;23.06;53.62;100480.81;5050562;28;20280;-73
2022/07/12 06:47:23;;;;;;;5.05;2.15;;;;;;;23.38;54.75;100497.50;5050487;28;20218;-73
2022/07/12 06:49:50;;;;;;;3.35;1.60;;;;;;;23.40;54.33;100495.69;5050630;28;20211;-74
2022/07/12 06:52:17;;;;;;;4.63;1.92;;;;;;;23.38;54.49;100465.75;5050542;28;20216;-73
2022/07/12 06:54:44;;;;;;;6.88;2.00;;;;;;;23.83;53.54;100458.16;5050373;28;20235;-75
2022/07/12 06:57:11;;;;;;;4.85;1.52;;;;;;;23.97;51.91;100485.03;5050443;28;20207;-73
2022/07/12 06:59:38;;;;;;;1.50;1.40;;;;;;;24.06;52.73;100497.97;5015227;28;20227;-73
2022/07/12 07:02:05;;;;;;;4.05;1.75;;;;;;;23.90;52.15;100494.94;5015128;28;20200;-73
2022/07/12 07:04:33;;;;;;;2.05;1.65;;;;;;;23.51;52.33;100489.16;5052848;28;20640;-75
2022/07/12 07:07:00;;;;;;;4.10;1.60;;;;;;;23.58;53.41;100506.59;5046944;28;20204;-75
2022/07/12 07:09:27;;;;;;;1.27;1.17;;;;;;;23.32;53.05;100492.41;5054309;28;20207;-74
2022/07/12 07:11:54;;;;;;;1.70;1.60;;;;;;;23.81;53.12;100510.28;5054347;28;20679;-75
2022/07/12 07:14:21;;;;;;;3.13;1.80;;;;;;;23.69;52.72;100503.59;5054309;28;20236;-75
2022/07/12 07:16:47;;;;;;;4.30;1.70;;;;;;;23.73;53.08;100489.34;5054090;28;20203;-74
2022/07/12 07:19:14;;;;;;;2.28;1.70;;;;;;;23.81;53.49;100503.22;5054255;28;20246;-75
2022/07/12 07:21:42;;;;;;;1.67;1.52;;;;;;;23.72;53.65;100503.53;5054036;28;20199;-76
2022/07/12 07:24:10;;;;;;;1.70;1.60;;;;;;;23.61;53.87;100505.63;5053747;28;20192;-74
2022/07/12 07:26:37;;;;;;;2.47;1.90;;;;;;;23.77;54.07;100508.66;5047972;28;20200;-73
2022/07/12 07:31:48;;;;;;;2.42;1.67;;;;;;;23.86;52.96;100501.28;5053488;28;20238;-72
2022/07/12 07:34:15;;;;;;;1.52;1.52;;;;;;;23.89;53.28;100501.19;5051237;28;20229;-73
2022/07/12 07:36:43;;;;;;;1.70;1.60;;;;;;;24.33;53.58;100502.34;5053603;28;20200;-74
2022/07/12 07:39:12;;;;;;;6.18;1.80;;;;;;;24.25;52.38;100507.06;5053817;28;20231;-73
2022/07/12 07:41:38;;;;;;;4.20;2.10;;;;;;;24.03;53.56;100500.72;4961749;28;20198;-74
2022/07/12 07:44:05;;;;;;;2.65;1.55;;;;;;;24.33;52.55;100488.25;5053812;28;20215;-74
2022/07/12 07:46:32;;;;;;;2.53;1.20;;;;;;;24.02;50.50;100505.16;5053659;28;20655;-73
2022/07/12 07:48:59;;;;;;;1.70;1.50;;;;;;;24.08;49.69;100502.28;5053473;28;20581;-73
2022/07/12 07:51:26;;;;;;;2.53;1.55;;;;;;;24.11;51.03;100507.47;5053571;28;20199;-73
2022/07/12 07:53:54;;;;;;;2.45;2.35;;;;;;;24.13;51.56;100511.00;5053669;28;20223;-73
2022/07/12 07:56:21;;;;;;;1.55;1.48;;;;;;;24.04;50.47;100508.59;5018456;28;20207;-74
2022/07/12 07:58:47;;;;;;;1.52;1.40;;;;;;;24.24;48.66;100499.16;5053555;28;20230;-74
2022/07/12 08:01:16;;;;;;;1.50;1.40;;;;;;;24.19;49.54;100509.91;5053174;28;20203;-74
2022/07/12 08:03:43;;;;;;;1.85;1.63;;;;;;;24.22;49.20;100508.97;5051887;28;20199;-74
2022/07/12 08:06:10;;;;;;;1.80;1.70;;;;;;;24.54;49.47;100498.09;5053102;28;20602;-74
2022/07/12 08:08:37;;;;;;;1.45;1.33;;;;;;;24.63;48.19;100503.06;5015023;28;20196;-74
2022/07/12 08:11:05;;;;;;;2.47;1.40;;;;;;;24.58;48.93;100502.34;5050574;28;20626;-74
2022/07/12 08:13:32;;;;;;;1.67;1.38;;;;;;;24.51;48.97;100496.41;5053051;28;20203;-74
2022/07/12 08:15:59;;;;;;;4.95;1.60;;;;;;;24.58;49.19;100499.69;5053016;28;20203;-74
2022/07/12 08:18:26;;;;;;;9.25;1.85;;;;;;;24.67;51.26;100491.44;5052691;28;20219;-74
2022/07/12 08:20:53;;;;;;;6.65;1.63;;;;;;;24.73;48.54;100490.31;5049902;28;20202;-74
2022/07/12 08:23:20;;;;;;;1.38;1.38;;;;;;;24.60;48.67;100489.91;5052194;28;20199;-74
2022/07/12 08:25:47;;;;;;;1.38;1.38;;;;;;;24.27;47.09;100427.50;5045117;28;20258;-73
2022/07/12 08:28:15;;;;;;;1.98;1.80;;;;;;;24.84;48.51;100485.53;5036959;28;20200;-74
2022/07/12 08:30:42;;;;;;;1.40;1.30;;;;;;;24.76;47.38;100480.47;5039024;28;20211;-73
2022/07/12 08:33:09;;;;;;;3.30;1.65;;;;;;;24.97;47.56;100485.00;5052783;28;20199;-73
2022/07/12 08:35:36;;;;;;;2.20;1.45;;;;;;;25.13;46.06;100488.84;5052693;28;20207;-74
2022/07/12 08:38:03;;;;;;;2.28;1.48;;;;;;;25.27;47.19;100482.13;5044023;28;20219;-73
2022/07/12 08:40:30;;;;;;;2.40;1.52;;;;;;;25.33;46.32;100480.09;5035072;28;20757;-73
2022/07/12 08:42:59;;;;;;;1.33;1.33;;;;;;;25.22;45.98;100476.16;5035610;28;20242;-74
2022/07/12 08:45:28;;;;;;;1.70;1.60;;;;;;;25.01;44.97;100465.41;5046769;28;20242;-73
2022/07/12 08:47:55;;;;;;;1.02;1.02;;;;;;;25.14;45.26;100473.78;5040630;28;20663;-73
2022/07/12 08:50:24;;;;;;;5.13;1.50;;;;;;;25.13;44.67;100451.69;5052145;28;20210;-74
2022/07/12 08:52:52;;;;;;;9.50;1.42;;;;;;;25.26;45.29;100475.06;5051763;28;20204;-73
2022/07/12 08:55:24;;;;;;;1.60;1.35;;;;;;;25.31;44.68;100465.16;5052272;28;20242;-73
2022/07/12 08:57:52;;;;;;;1.65;1.33;;;;;;;25.13;43.51;100458.78;5051809;28;20192;-73
2022/07/12 09:00:20;;;;;;;1.50;1.40;;;;;;;24.82;43.98;100474.97;5051842;28;20227;-73
2022/07/12 09:02:50;;;;;;;4.82;1.60;;;;;;;25.10;44.36;100464.19;5051360;28;20633;-74
2022/07/12 09:05:18;;;;;;;2.60;1.75;;;;;;;24.96;45.06;100456.78;5046772;28;20588;-73
2022/07/12 09:07:45;;;;;;;4.95;1.50;;;;;;;25.22;44.47;100460.22;5044076;28;20218;-73
2022/07/12 09:10:13;;;;;;;1.60;1.50;;;;;;;25.64;45.45;100466.50;5033369;28;20203;-74
2022/07/12 09:12:41;;;;;;;1.40;1.30;;;;;;;25.69;45.37;100455.66;5052046;28;20261;-74
2022/07/12 09:15:16;;;;;;;3.08;1.80;;;;;;;26.02;43.88;100440.97;5051995;28;20268;-74
2022/07/12 09:17:57;;;;;;;2.08;1.20;;;;;;;25.98;43.19;100458.84;5033670;28;20268;-74
2022/07/12 09:20:25;;;;;;;4.53;1.85;;;;;;;25.93;41.60;100455.53;5051966;28;20226;-75
2022/07/12 09:22:54;;;;;;;1.70;1.60;;;;;;;25.92;42.63;100460.91;5051780;28;20647;-75
2022/07/12 09:25:21;;;;;;;2.67;1.60;;;;;;;25.54;42.65;100443.91;5051969;28;20207;-77
2022/07/12 09:27:51;;;;;;;5.25;1.42;;;;;;;25.38;42.40;100456.88;5051113;28;20207;-71
2022/07/12 09:30:18;;;;;;;1.85;1.63;;;;;;;25.14;43.23;100461.38;5051943;28;20203;-75
2022/07/12 09:36:07;;;;;;;1.40;1.30;;;;;;;25.41;43.17;100437.31;5049443;28;20199;-78
2022/07/12 09:38:34;;;;;;;1.77;1.67;;;;;;;25.92;43.28;100440.53;5050962;28;20204;-76
2022/07/12 09:41:01;;;;;;;2.22;2.05;;;;;;;26.01;44.56;100440.13;5050960;28;20191;-75
2022/07/12 09:43:29;;;;;;;3.53;2.00;;;;;;;26.24;42.44;100441.81;5053630;28;20221;-75
2022/07/12 09:45:57;;;;;;;7.63;2.60;;;;;;;26.26;43.65;100444.41;5050837;28;20238;-74
2022/07/12 09:48:27;;;;;;;10.65;2.35;;;;;;;26.44;44.11;100432.97;5053370;28;20202;-74
2022/07/12 09:50:54;;;;;;;6.50;2.78;;;;;;;26.49;43.23;100431.84;5051134;28;20212;-73
2022/07/12 09:53:25;;;;;;;5.40;2.28;;;;;;;26.92;44.52;100441.44;5050793;28;20231;-74
2022/07/12 09:55:53;;;;;;;4.68;1.90;;;;;;;27.04;41.92;100430.19;5057474;28;20211;-75
2022/07/12 09:58:24;;;;;;;3.42;1.83;;;;;;;26.93;41.66;100437.81;5062004;28;20637;-74
2022/07/12 10:00:53;;;;;;;2.22;1.70;;;;;;;26.73;40.38;100429.84;5061819;28;20679;-74
2022/07/12 10:03:24;;;;;;;3.20;1.80;;;;;;;26.66;39.28;100417.75;5061995;28;20271;-75
2022/07/12 10:05:53;;;;;;;1.85;1.65;;;;;;;26.58;38.87;100385.31;5061075;28;20289;-74
2022/07/12 10:08:23;;;;;;;2.03;1.60;;;;;;;26.86;39.88;100425.72;5068181;28;20210;-73
2022/07/12 10:10:51;;;;;;;2.95;1.77;;;;;;;26.97;39.80;100427.88;5071114;28;20203;-73
2022/07/12 10:13:20;;;;;;;1.58;1.50;;;;;;;26.89;38.94;100398.97;5071151;28;20199;-73
2022/07/12 10:15:50;;;;;;;7.43;1.65;;;;;;;26.95;38.64;100421.78;5035869;28;20206;-73
2022/07/12 10:18:18;;;;;;;4.90;2.03;;;;;;;27.07;38.73;100422.06;5071022;28;20198;-76
2022/07/12 10:20:46;;;;;;;1.80;1.70;;;;;;;26.57;38.79;100380.94;5071098;28;20225;-74
2022/07/12 10:23:33;;;;;;;2.28;1.40;;;;;;;27.18;37.63;100418.03;5042676;28;20728;-74
2022/07/12 10:26:01;;;;;;;5.72;1.38;;;;;;;26.65;36.76;100365.47;5036367;28;20203;-75
2022/07/12 10:29:01;;;;;;;1.23;1.10;;;;;;;26.88;36.01;100410.56;5049007;28;20219;-74
2022/07/12 10:31:31;;;;;;;1.73;1.48;;;;;;;26.68;36.33;100415.03;5048779;28;20203;-75
2022/07/12 10:34:20;;;;;;;1.42;1.33;;;;;;;26.48;37.05;100350.31;5055577;28;20245;-74
2022/07/12 10:37:12;;;;;;;3.45;1.65;;;;;;;27.26;36.32;100419.38;5066051;28;20655;-74
2022/07/12 10:39:41;;;;;;;4.43;1.27;;;;;;;27.22;35.18;100414.28;5071541;28;20230;-75
2022/07/12 10:42:15;;;;;;;1.63;1.52;;;;;;;27.10;35.21;100421.94;5073878;28;20625;-75
2022/07/12 10:44:44;;;;;;;4.10;1.40;;;;;;;27.38;35.54;100409.94;5074553;28;20627;-74
2022/07/12 10:47:13;;;;;;;1.70;1.60;;;;;;;27.57;34.84;100413.47;5074249;28;20281;-74
2022/07/12 10:49:46;;;;;;;1.30;1.20;;;;;;;27.98;34.62;100409.56;5074794;28;20206;-74
2022/07/12 10:52:14;;;;;;;5.47;1.40;;;;;;;27.77;33.69;100394.66;5074314;28;20207;-76
2022/07/12 10:54:50;;;;;;;1.60;1.20;;;;;;;28.23;33.25;100398.50;5074481;28;20230;-73
2022/07/12 10:57:17;;;;;;;3.30;1.45;;;;;;;28.10;32.40;100405.44;5074074;28;20206;-73
2022/07/12 10:59:51;;;;;;;1.20;1.20;;;;;;;28.03;32.12;100386.22;5074533;28;20901;-73
2022/07/12 11:02:22;;;;;;;1.90;1.30;;;;;;;28.21;32.51;100394.22;5074142;28;20205;-75
2022/07/12 11:04:49;;;;;;;1.60;1.08;;;;;;;28.07;32.55;100403.78;5040268;28;20281;-75
2022/07/12 11:07:18;;;;;;;1.20;1.10;;;;;;;28.01;32.69;100401.41;5073999;28;20758;-75
2022/07/12 11:09:52;;;;;;;5.38;1.63;;;;;;;28.06;33.15;100407.38;5065053;28;20201;-74
2022/07/12 11:12:19;;;;;;;1.48;1.10;;;;;;;28.07;31.70;100413.59;5053828;28;20294;-75
2022/07/12 11:14:46;;;;;;;1.60;1.27;;;;;;;27.97;31.38;100397.16;5035341;28;20563;-76
2022/07/12 11:17:13;;;;;;;1.20;1.10;;;;;;;27.76;33.13;100373.41;5053965;28;20200;-75
2022/07/12 11:19:40;;;;;;;1.60;1.08;;;;;;;27.76;31.54;100387.59;5053963;28;20215;-76
2022/07/12 11:22:07;;;;;;;1.13;1.13;;;;;;;27.52;32.00;100411.03;5053609;28;20529;-75
2022/07/12 11:24:35;;;;;;;1.02;1.02;;;;;;;27.44;32.81;100410.50;5053529;28;20214;-75
2022/07/12 11:27:04;;;;;;;2.25;1.20;;;;;;;27.81;31.97;100412.22;5055338;28;20310;-74
2022/07/12 11:29:32;;;;;;;1.05;1.05;;;;;;;27.74;30.55;100405.47;5052458;28;20663;-75
2022/07/12 11:32:04;;;;;;;1.15;1.05;;;;;;;27.86;32.39;100388.00;5051797;28;20195;-75
2022/07/12 11:34:31;;;;;;;1.20;1.10;;;;;;;28.07;31.35;100400.28;5051854;28;20578;-75